| time (UTC) | temp F | wind direction | speed MPH | gust MPH | rain 1hr in | rain 24hr in | rain mn in | humidity % | barometer mb |
| 20260509225421 | 74 | 45 | 4.0 | 10.0 | 0.00 | 0.00 | 0.00 | 25 | 1003.0 |
| 20260509224613 | 75 | 22 | 4.0 | 13.0 | 0.00 | 0.00 | 0.00 | 24 | 1003.0 |
| 20260509223741 | 76 | 45 | 4.0 | 7.0 | 0.00 | 0.00 | 0.00 | 25 | 1002.8 |
| 20260509222838 | 76 | 68 | 4.0 | 12.0 | 0.00 | 0.00 | 0.00 | 27 | 1002.8 |
| 20260509222019 | 75 | 135 | 4.0 | 10.0 | 0.00 | 0.00 | 0.00 | 28 | 1002.9 |
| 20260509221133 | 74 | 45 | 7.0 | 15.0 | 0.00 | 0.00 | 0.00 | 26 | 1002.9 |
| 20260509220452 | 74 | 45 | 6.0 | 12.0 | 0.00 | 0.00 | 0.00 | 25 | 1003.1 |
| 20260509220208 | 74 | 45 | 6.0 | 12.0 | 0.00 | 0.00 | 0.00 | 25 | 1003.1 |
| 20260509215450 | 75 | 0 | 5.0 | 10.0 | 0.00 | 0.00 | 0.00 | 28 | 1003.2 |
| 20260509215333 | 74 | 45 | 5.0 | 10.0 | 0.00 | 0.00 | 0.00 | 28 | 1003.2 |
| 20260509214528 | 75 | 0 | 5.0 | 10.0 | 0.00 | 0.00 | 0.00 | 28 | 1003.2 |
| 20260509213857 | 75 | 68 | 4.0 | 11.0 | 0.00 | 0.00 | 0.00 | 25 | 1003.1 |
| 20260509213558 | 75 | 68 | 4.0 | 11.0 | 0.00 | 0.00 | 0.00 | 25 | 1003.1 |
| 20260509212907 | 75 | 68 | 5.0 | 12.0 | 0.00 | 0.00 | 0.00 | 24 | 1003.4 |
| 20260509212558 | 75 | 68 | 5.0 | 12.0 | 0.00 | 0.00 | 0.00 | 24 | 1003.4 |
| 20260509212009 | 74 | 68 | 6.0 | 11.0 | 0.00 | 0.00 | 0.00 | 24 | 1003.4 |
| 20260509211603 | 75 | 22 | 6.0 | 13.0 | 0.00 | 0.00 | 0.00 | 26 | 1003.3 |
| 20260509210658 | 74 | 68 | 6.0 | 11.0 | 0.00 | 0.00 | 0.00 | 24 | 1003.4 |
| 20260509205841 | 74 | 45 | 6.0 | 12.0 | 0.00 | 0.00 | 0.00 | 24 | 1003.6 |
| 20260509204853 | 75 | 90 | 5.0 | 12.0 | 0.00 | 0.00 | 0.00 | 26 | 1003.7 |
| 20260509203533 | 76 | 112 | 6.0 | 12.0 | 0.00 | 0.00 | 0.00 | 28 | 1003.8 |
| 20260509203151 | 76 | 112 | 6.0 | 12.0 | 0.00 | 0.00 | 0.00 | 28 | 1003.8 |
| 20260509202447 | 76 | 22 | 4.0 | 10.0 | 0.00 | 0.00 | 0.00 | 25 | 1003.8 |
| 20260509202258 | 76 | 22 | 4.0 | 10.0 | 0.00 | 0.00 | 0.00 | 25 | 1003.8 |
| 20260509201433 | 75 | 112 | 3.0 | 7.0 | 0.00 | 0.00 | 0.00 | 24 | 1003.9 |
| 20260509200448 | 76 | 68 | 7.0 | 13.0 | 0.00 | 0.00 | 0.00 | 24 | 1004.0 |
| 20260509195603 | 76 | 90 | 4.0 | 10.0 | 0.00 | 0.00 | 0.00 | 23 | 1004.0 |
| 20260509194726 | 76 | 248 | 3.0 | 11.0 | 0.00 | 0.00 | 0.00 | 22 | 1004.1 |
| 20260509194647 | 76 | 248 | 3.0 | 11.0 | 0.00 | 0.00 | 0.00 | 22 | 1004.1 |
| 20260509192751 | 77 | 180 | 5.0 | 10.0 | 0.00 | 0.00 | 0.00 | 26 | 1004.1 |
| 20260509191013 | 75 | 68 | 3.0 | 9.0 | 0.00 | 0.00 | 0.00 | 24 | 1004.3 |
| 20260509190059 | 75 | 90 | 5.0 | 10.0 | 0.00 | 0.00 | 0.00 | 25 | 1004.5 |
| 20260509185141 | 76 | 45 | 5.0 | 10.0 | 0.00 | 0.00 | 0.00 | 28 | 1004.4 |
| 20260509184445 | 76 | 135 | 4.0 | 11.0 | 0.00 | 0.00 | 0.00 | 24 | 1004.5 |
| 20260509184343 | 76 | 135 | 4.0 | 11.0 | 0.00 | 0.00 | 0.00 | 24 | 1004.5 |
| 20260509183858 | 76 | 180 | 3.0 | 6.0 | 0.00 | 0.00 | 0.00 | 31 | 1004.6 |
| 20260509183525 | 76 | 180 | 3.0 | 6.0 | 0.00 | 0.00 | 0.00 | 31 | 1004.6 |
| 20260509182949 | 75 | 68 | 4.0 | 11.0 | 0.00 | 0.00 | 0.00 | 24 | 1004.5 |
| 20260509182603 | 75 | 68 | 4.0 | 11.0 | 0.00 | 0.00 | 0.00 | 24 | 1004.5 |
| 20260509181730 | 75 | 45 | 6.0 | 14.0 | 0.00 | 0.00 | 0.00 | 26 | 1004.6 |
| 20260509181618 | 75 | 45 | 6.0 | 14.0 | 0.00 | 0.00 | 0.00 | 26 | 1004.6 |
| 20260509180711 | 75 | 112 | 6.0 | 15.0 | 0.00 | 0.00 | 0.00 | 29 | 1004.7 |
| 20260509175821 | 75 | 45 | 5.0 | 14.0 | 0.00 | 0.00 | 0.00 | 27 | 1004.7 |
| 20260509174843 | 75 | 45 | 6.0 | 16.0 | 0.00 | 0.00 | 0.00 | 31 | 1004.8 |
| 20260509174038 | 75 | 68 | 6.0 | 15.0 | 0.00 | 0.00 | 0.00 | 28 | 1004.9 |
| 20260509173221 | 75 | 45 | 7.0 | 13.0 | 0.00 | 0.00 | 0.00 | 29 | 1004.8 |
| 20260509172333 | 76 | 68 | 5.0 | 14.0 | 0.00 | 0.00 | 0.00 | 28 | 1004.8 |
| 20260509170508 | 76 | 135 | 3.0 | 7.0 | 0.00 | 0.00 | 0.00 | 26 | 1005.0 |
| 20260509165628 | 76 | 135 | 4.0 | 9.0 | 0.00 | 0.00 | 0.00 | 27 | 1004.9 |
| 20260509163053 | 74 | 112 | 4.0 | 9.0 | 0.00 | 0.00 | 0.00 | 25 | 1005.1 |
| 20260509162053 | 74 | 90 | 3.0 | 5.0 | 0.00 | 0.00 | 0.00 | 24 | 1005.1 |
| 20260509160439 | 73 | 45 | 2.0 | 4.0 | 0.00 | 0.00 | 0.00 | 31 | 1005.0 |
| 20260509160341 | 73 | 45 | 2.0 | 4.0 | 0.00 | 0.00 | 0.00 | 31 | 1005.0 |
| 20260509155411 | 73 | 112 | 3.0 | 6.0 | 0.00 | 0.00 | 0.00 | 29 | 1005.0 |
| 20260509153631 | 71 | 158 | 2.0 | 3.0 | 0.00 | 0.00 | 0.00 | 31 | 1005.0 |
| 20260509152805 | 70 | 158 | 2.0 | 4.0 | 0.00 | 0.00 | 0.00 | 33 | 1005.1 |
| 20260509152713 | 70 | 158 | 2.0 | 4.0 | 0.00 | 0.00 | 0.00 | 33 | 1005.1 |
| 20260509151838 | 68 | 180 | 2.0 | 4.0 | 0.00 | 0.00 | 0.00 | 37 | 1005.2 |
| 20260509150838 | 67 | 158 | 1.0 | 2.0 | 0.00 | 0.00 | 0.00 | 38 | 1005.3 |
| 20260509145908 | 65 | 135 | 2.0 | 3.0 | 0.00 | 0.00 | 0.00 | 43 | 1005.4 |
| 20260509144033 | 62 | 158 | 2.0 | 3.0 | 0.00 | 0.00 | 0.00 | 49 | 1005.5 |
| 20260509143213 | 61 | 180 | 1.0 | 2.0 | 0.00 | 0.00 | 0.00 | 56 | 1005.5 |
| 20260509142248 | 60 | 248 | 2.0 | 4.0 | 0.00 | 0.00 | 0.00 | 61 | 1005.7 |
| 20260509140541 | 58 | 0 | 0.0 | 1.0 | 0.00 | 0.00 | 0.00 | 59 | 1005.7 |
| 20260509135621 | 56 | 225 | 1.0 | 3.0 | 0.00 | 0.00 | 0.00 | 67 | 1005.7 |
| 20260509134723 | 54 | 0 | 0.0 | 2.0 | 0.00 | 0.00 | 0.00 | 73 | 1005.6 |
| 20260509133828 | 51 | 202 | 2.0 | 4.0 | 0.00 | 0.00 | 0.00 | 73 | 1005.7 |
| 20260509132141 | 50 | 90 | 2.0 | 3.0 | 0.00 | 0.00 | 0.00 | 77 | 1005.5 |
| 20260509131233 | 50 | 0 | 0.0 | 3.0 | 0.00 | 0.00 | 0.00 | 75 | 1005.4 |
| 20260509125421 | 48 | 292 | 1.0 | 3.0 | 0.00 | 0.00 | 0.00 | 74 | 1004.9 |
| 20260509124553 | 48 | 0 | 2.0 | 5.0 | 0.00 | 0.00 | 0.00 | 74 | 1004.8 |
| 20260509123707 | 47 | 0 | 2.0 | 3.0 | 0.00 | 0.00 | 0.00 | 79 | 1004.7 |
| 20260509122721 | 47 | 0 | 2.0 | 9.0 | 0.00 | 0.00 | 0.00 | 79 | 1004.7 |
| 20260509121813 | 47 | 202 | 1.0 | 2.0 | 0.00 | 0.00 | 0.00 | 79 | 1004.4 |
| 20260509120813 | 47 | 338 | 1.0 | 2.0 | 0.00 | 0.00 | 0.00 | 80 | 1004.3 |
| 20260509115958 | 47 | 45 | 1.0 | 2.0 | 0.00 | 0.00 | 0.00 | 81 | 1004.2 |
| 20260509115118 | 47 | 338 | 1.0 | 2.0 | 0.00 | 0.00 | 0.00 | 81 | 1004.3 |
| 20260509114232 | 46 | 158 | 2.0 | 5.0 | 0.00 | 0.00 | 0.00 | 81 | 1004.2 |
| 20260509113348 | 46 | 202 | 3.0 | 7.0 | 0.00 | 0.00 | 0.00 | 80 | 1004.2 |
| 20260509112358 | 46 | 315 | 1.0 | 3.0 | 0.00 | 0.00 | 0.00 | 80 | 1004.0 |
| 20260509111508 | 47 | 270 | 4.0 | 10.0 | 0.00 | 0.00 | 0.00 | 81 | 1004.2 |
| 20260509110653 | 47 | 45 | 2.0 | 3.0 | 0.00 | 0.00 | 0.00 | 81 | 1003.8 |
| 20260509105653 | 47 | 0 | 0.0 | 2.0 | 0.00 | 0.00 | 0.00 | 80 | 1004.2 |
| 20260509104813 | 47 | 68 | 1.0 | 3.0 | 0.00 | 0.00 | 0.00 | 79 | 1004.1 |
| 20260509104401 | 47 | 270 | 2.0 | 4.0 | 0.00 | 0.00 | 0.00 | 79 | 1004.0 |
| 20260509103941 | 47 | 270 | 2.0 | 4.0 | 0.00 | 0.00 | 0.00 | 79 | 1004.0 |
| 20260509103013 | 47 | 338 | 1.0 | 2.0 | 0.00 | 0.00 | 0.00 | 79 | 1003.8 |
| 20260509102403 | 48 | 338 | 1.0 | 2.0 | 0.00 | 0.00 | 0.00 | 79 | 1004.0 |
| 20260509102143 | 48 | 338 | 1.0 | 2.0 | 0.00 | 0.00 | 0.00 | 79 | 1004.0 |
| 20260509101248 | 48 | 270 | 1.0 | 3.0 | 0.00 | 0.00 | 0.00 | 79 | 1004.0 |
| 20260509100258 | 48 | 45 | 1.0 | 2.0 | 0.00 | 0.00 | 0.00 | 79 | 1004.0 |
| 20260509095428 | 49 | 112 | 3.0 | 6.0 | 0.00 | 0.00 | 0.00 | 79 | 1003.9 |
| 20260509094618 | 49 | 180 | 1.0 | 4.0 | 0.00 | 0.00 | 0.00 | 79 | 1004.0 |
| 20260509093859 | 49 | 180 | 1.0 | 4.0 | 0.00 | 0.00 | 0.00 | 78 | 1004.1 |
| 20260509093743 | 49 | 180 | 1.0 | 4.0 | 0.00 | 0.00 | 0.00 | 78 | 1004.1 |
| 20260509092923 | 49 | 270 | 2.0 | 4.0 | 0.00 | 0.00 | 0.00 | 77 | 1004.2 |
| 20260509092403 | 49 | 158 | 1.0 | 3.0 | 0.00 | 0.00 | 0.00 | 77 | 1004.1 |
| 20260509092103 | 49 | 158 | 1.0 | 3.0 | 0.00 | 0.00 | 0.00 | 77 | 1004.1 |
| 20260509091153 | 48 | 0 | 3.0 | 6.0 | 0.00 | 0.00 | 0.00 | 76 | 1003.9 |
| 20260509090258 | 49 | 22 | 2.0 | 4.0 | 0.00 | 0.00 | 0.00 | 75 | 1003.8 |
| 20260509085413 | 49 | 270 | 1.0 | 2.0 | 0.00 | 0.00 | 0.00 | 74 | 1003.9 |
| 20260509084438 | 49 | 0 | 0.0 | 1.0 | 0.00 | 0.00 | 0.00 | 74 | 1003.8 |
| 20260509083901 | 49 | 0 | 0.0 | 1.0 | 0.00 | 0.00 | 0.00 | 74 | 1003.8 |
| 20260509083528 | 49 | 0 | 0.0 | 1.0 | 0.00 | 0.00 | 0.00 | 74 | 1003.8 |
| 20260509082713 | 50 | 270 | 1.0 | 3.0 | 0.00 | 0.00 | 0.00 | 75 | 1003.9 |
| 20260509081738 | 50 | 292 | 1.0 | 2.0 | 0.00 | 0.00 | 0.00 | 75 | 1003.8 |
| 20260509080923 | 50 | 292 | 1.0 | 3.0 | 0.00 | 0.00 | 0.00 | 74 | 1003.9 |
| 20260509075953 | 50 | 0 | 0.0 | 1.0 | 0.00 | 0.00 | 0.00 | 73 | 1004.0 |
| 20260509075128 | 51 | 0 | 0.0 | 2.0 | 0.00 | 0.00 | 0.00 | 73 | 1004.0 |
| 20260509074153 | 51 | 0 | 0.0 | 2.0 | 0.00 | 0.00 | 0.00 | 73 | 1004.1 |
| 20260509073405 | 51 | 112 | 1.0 | 2.0 | 0.00 | 0.00 | 0.00 | 72 | 1004.2 |
| 20260509073321 | 51 | 112 | 1.0 | 2.0 | 0.00 | 0.00 | 0.00 | 72 | 1004.2 |
| 20260509072401 | 51 | 0 | 0.0 | 1.0 | 0.00 | 0.00 | 0.00 | 72 | 1004.4 |
| 20260509071836 | 52 | 270 | 1.0 | 3.0 | 0.00 | 0.00 | 0.00 | 71 | 1004.4 |
| 20260509071438 | 52 | 270 | 1.0 | 3.0 | 0.00 | 0.00 | 0.00 | 71 | 1004.4 |
| 20260509070438 | 52 | 0 | 0.0 | 1.0 | 0.00 | 0.00 | 0.00 | 72 | 1004.5 |
| 20260509065603 | 52 | 248 | 1.0 | 2.0 | 0.00 | 0.00 | 0.00 | 71 | 1004.7 |
| 20260509065402 | 53 | 0 | 0.0 | 1.0 | 0.00 | 0.00 | 0.00 | 69 | 1004.7 |
| 20260509064738 | 53 | 0 | 0.0 | 1.0 | 0.00 | 0.00 | 0.00 | 69 | 1004.7 |
| 20260509063021 | 54 | 270 | 1.0 | 3.0 | 0.00 | 0.00 | 0.00 | 68 | 1004.8 |
| 20260509062405 | 54 | 0 | 2.0 | 5.0 | 0.00 | 0.00 | 0.00 | 68 | 1004.8 |
| 20260509062153 | 54 | 0 | 2.0 | 5.0 | 0.00 | 0.00 | 0.00 | 68 | 1004.8 |
| 20260509061452 | 54 | 0 | 2.0 | 5.0 | 0.00 | 0.00 | 0.00 | 68 | 1004.8 |
| 20260509061208 | 54 | 0 | 2.0 | 5.0 | 0.00 | 0.00 | 0.00 | 68 | 1004.8 |
| 20260509060404 | 54 | 22 | 3.0 | 4.0 | 0.00 | 0.00 | 0.00 | 68 | 1005.0 |
| 20260509060228 | 54 | 22 | 3.0 | 4.0 | 0.00 | 0.00 | 0.00 | 68 | 1005.0 |
| 20260509055450 | 53 | 45 | 1.0 | 3.0 | 0.00 | 0.00 | 0.00 | 71 | 1005.3 |
| 20260509055408 | 53 | 0 | 3.0 | 5.0 | 0.00 | 0.00 | 0.00 | 70 | 1005.2 |
| 20260509054538 | 53 | 45 | 1.0 | 3.0 | 0.00 | 0.00 | 0.00 | 71 | 1005.3 |
| 20260509053723 | 53 | 45 | 1.0 | 2.0 | 0.00 | 0.00 | 0.00 | 70 | 1005.2 |
| 20260509052918 | 53 | 338 | 1.0 | 2.0 | 0.00 | 0.00 | 0.00 | 71 | 1005.4 |
| 20260509052403 | 53 | 338 | 1.0 | 2.0 | 0.00 | 0.00 | 0.00 | 71 | 1005.4 |
| 20260509052038 | 53 | 338 | 1.0 | 2.0 | 0.00 | 0.00 | 0.00 | 71 | 1005.4 |
| 20260509051148 | 53 | 0 | 0.0 | 1.0 | 0.00 | 0.00 | 0.00 | 72 | 1005.4 |
| 20260509050338 | 53 | 248 | 1.0 | 2.0 | 0.00 | 0.00 | 0.00 | 72 | 1005.4 |
| 20260509045338 | 53 | 0 | 0.0 | 2.0 | 0.00 | 0.00 | 0.00 | 72 | 1005.5 |
| 20260509044403 | 54 | 248 | 1.0 | 2.0 | 0.00 | 0.00 | 0.00 | 72 | 1005.7 |
| 20260509043431 | 54 | 0 | 0.0 | 1.0 | 0.00 | 0.00 | 0.00 | 70 | 1005.9 |
| 20260509042954 | 54 | 248 | 1.0 | 2.0 | 0.00 | 0.00 | 0.00 | 70 | 1006.0 |
| 20260509042613 | 54 | 248 | 1.0 | 2.0 | 0.00 | 0.00 | 0.00 | 70 | 1006.0 |
| 20260509041658 | 55 | 0 | 0.0 | 2.0 | 0.00 | 0.00 | 0.00 | 71 | 1006.2 |
| 20260509040738 | 55 | 202 | 1.0 | 2.0 | 0.00 | 0.00 | 0.00 | 71 | 1006.1 |
| 20260509035838 | 56 | 202 | 1.0 | 2.0 | 0.00 | 0.00 | 0.00 | 68 | 1006.1 |
| 20260509034203 | 56 | 0 | 0.0 | 2.0 | 0.00 | 0.01 | 0.00 | 64 | 1006.2 |
| 20260509033322 | 57 | 0 | 0.0 | 2.0 | 0.00 | 0.01 | 0.00 | 61 | 1006.2 |
| 20260509033218 | 57 | 0 | 0.0 | 2.0 | 0.00 | 0.01 | 0.00 | 61 | 1006.2 |
| 20260509032218 | 57 | 0 | 0.0 | 2.0 | 0.00 | 0.01 | 0.00 | 59 | 1006.3 |
| 20260509031353 | 58 | 270 | 1.0 | 2.0 | 0.00 | 0.01 | 0.00 | 57 | 1006.1 |
| 20260509030423 | 59 | 0 | 0.0 | 1.0 | 0.00 | 0.01 | 0.00 | 56 | 1006.0 |
| 20260509025613 | 59 | 0 | 0.0 | 1.0 | 0.00 | 0.01 | 0.00 | 56 | 1006.0 |
| 20260509024718 | 60 | 270 | 1.0 | 2.0 | 0.00 | 0.01 | 0.00 | 53 | 1005.9 |
| 20260509023718 | 61 | 0 | 0.0 | 2.0 | 0.00 | 0.01 | 0.00 | 51 | 1005.7 |
| 20260509022718 | 61 | 135 | 1.0 | 3.0 | 0.00 | 0.01 | 0.00 | 49 | 1005.6 |
| 20260509021833 | 62 | 112 | 1.0 | 3.0 | 0.00 | 0.01 | 0.00 | 48 | 1005.6 |
| 20260509020853 | 63 | 90 | 2.0 | 4.0 | 0.00 | 0.01 | 0.00 | 47 | 1005.6 |
| 20260509015907 | 64 | 112 | 2.0 | 5.0 | 0.00 | 0.01 | 0.00 | 47 | 1005.5 |
| 20260509014918 | 64 | 112 | 2.0 | 5.0 | 0.00 | 0.01 | 0.00 | 46 | 1005.4 |
| 20260509013938 | 65 | 112 | 2.0 | 6.0 | 0.00 | 0.01 | 0.00 | 46 | 1005.4 |
| 20260509013412 | 65 | 135 | 3.0 | 7.0 | 0.00 | 0.01 | 0.00 | 46 | 1005.2 |
| 20260509013134 | 65 | 135 | 3.0 | 7.0 | 0.00 | 0.01 | 0.00 | 46 | 1005.2 |
| 20260509012318 | 66 | 68 | 1.0 | 3.0 | 0.00 | 0.01 | 0.00 | 44 | 1005.2 |
| 20260509011451 | 67 | 135 | 3.0 | 10.0 | 0.00 | 0.01 | 0.00 | 44 | 1005.1 |
| 20260509011435 | 67 | 135 | 1.0 | 2.0 | 0.00 | 0.01 | 0.00 | 43 | 1005.1 |
| 20260509010631 | 67 | 135 | 3.0 | 10.0 | 0.00 | 0.01 | 0.00 | 44 | 1005.1 |
| 20260509005748 | 67 | 112 | 3.0 | 6.0 | 0.00 | 0.01 | 0.00 | 42 | 1005.2 |
| 20260509005454 | 67 | 112 | 3.0 | 6.0 | 0.00 | 0.01 | 0.00 | 40 | 1005.0 |
| 20260509004923 | 67 | 112 | 3.0 | 6.0 | 0.00 | 0.01 | 0.00 | 40 | 1005.0 |
| 20260509004347 | 68 | 135 | 3.0 | 6.0 | 0.00 | 0.01 | 0.00 | 43 | 1005.0 |
| 20260509004048 | 68 | 135 | 3.0 | 6.0 | 0.00 | 0.01 | 0.00 | 43 | 1005.0 |
| 20260509003451 | 68 | 158 | 1.0 | 4.0 | 0.00 | 0.01 | 0.00 | 43 | 1005.1 |
| 20260509003048 | 68 | 158 | 1.0 | 4.0 | 0.00 | 0.01 | 0.00 | 43 | 1005.1 |
| 20260509002341 | 68 | 135 | 3.0 | 5.0 | 0.00 | 0.01 | 0.00 | 40 | 1005.1 |
| 20260509002141 | 68 | 135 | 3.0 | 5.0 | 0.00 | 0.01 | 0.00 | 40 | 1005.1 |
| 20260509001153 | 69 | 112 | 4.0 | 7.0 | 0.00 | 0.01 | 0.00 | 44 | 1005.1 |
| 20260509000341 | 69 | 135 | 2.0 | 6.0 | 0.00 | 0.01 | 0.00 | 44 | 1005.1 |
| 20260508235438 | 69 | 112 | 5.0 | 12.0 | 0.00 | 0.01 | 0.00 | 40 | 1005.0 |
| 20260508234553 | 69 | 158 | 5.0 | 10.0 | 0.00 | 0.01 | 0.00 | 42 | 1004.9 |
| 20260508233658 | 69 | 135 | 3.0 | 7.0 | 0.00 | 0.01 | 0.00 | 42 | 1005.0 |
| 20260508232733 | 70 | 135 | 3.0 | 7.0 | 0.00 | 0.01 | 0.00 | 41 | 1005.0 |
| 20260508232327 | 70 | 158 | 4.0 | 9.0 | 0.00 | 0.01 | 0.00 | 42 | 1004.9 |
| 20260508231908 | 70 | 158 | 4.0 | 9.0 | 0.00 | 0.01 | 0.00 | 42 | 1004.9 |
| 20260508231033 | 70 | 112 | 3.0 | 7.0 | 0.00 | 0.01 | 0.00 | 41 | 1004.9 |